sensor_id;sensor_type;location;lat;lon;timestamp;P1;P2;P0
74438;PMS7003;62869;52.632;29.748;2022-12-01T07:14:26;22.5;20;12.5
74438;PMS7003;62869;52.632;29.748;2022-12-01T07:19:14;29;25;14
74438;PMS7003;62869;52.632;29.748;2022-12-01T07:24:14;42.5;33.3;18.3
74438;PMS7003;62869;52.632;29.748;2022-12-01T07:29:14;42.5;33.3;18.3
74438;PMS7003;62869;52.632;29.748;2022-12-01T09:34:20;42.5;33.3;18.3
74438;PMS7003;62869;52.632;29.748;2022-12-01T09:39:20;12.7;11.3;6.3
74438;PMS7003;62869;52.632;29.748;2022-12-01T09:44:26;12;10.3;6.7
74438;PMS7003;62869;52.632;29.748;2022-12-01T10:29:33;12;10.3;6.7
74438;PMS7003;62869;52.632;29.748;2022-12-01T10:34:15;15;11.3;6.3
74438;PMS7003;62869;52.632;29.748;2022-12-01T10:39:15;14;11;5.7
74438;PMS7003;62869;52.632;29.748;2022-12-01T10:44:14;12.4;10;5.8
74438;PMS7003;62869;52.632;29.748;2022-12-01T10:49:20;15.3;11.5;6.5
74438;PMS7003;62869;52.632;29.748;2022-12-01T10:54:20;14.8;12.3;7.3
74438;PMS7003;62869;52.632;29.748;2022-12-01T10:59:25;14;11;7
74438;PMS7003;62869;52.632;29.748;2022-12-01T11:04:41;19.5;12;7.5
74438;PMS7003;62869;52.632;29.748;2022-12-01T11:09:17;12.5;11.5;7
74438;PMS7003;62869;52.632;29.748;2022-12-01T11:19:16;15.5;12.5;7
74438;PMS7003;62869;52.632;29.748;2022-12-01T11:24:27;14.5;12;7.5
74438;PMS7003;62869;52.632;29.748;2022-12-01T11:29:23;14.8;12.2;7.4
74438;PMS7003;62869;52.632;29.748;2022-12-01T11:34:32;18;14.5;7.3
74438;PMS7003;62869;52.632;29.748;2022-12-01T11:39:19;18;15;9
74438;PMS7003;62869;52.632;29.748;2022-12-01T11:44:20;14.5;13.8;7.5
74438;PMS7003;62869;52.632;29.748;2022-12-01T11:49:28;19;13.5;7
74438;PMS7003;62869;52.632;29.748;2022-12-01T11:54:15;20.3;17.3;9
74438;PMS7003;62869;52.632;29.748;2022-12-01T11:59:25;20.3;16.3;9.8
74438;PMS7003;62869;52.632;29.748;2022-12-01T12:04:20;22.8;17;9.8
74438;PMS7003;62869;52.632;29.748;2022-12-01T12:09:29;17;14.5;8.5
74438;PMS7003;62869;52.632;29.748;2022-12-01T12:14:19;17.2;15;9
74438;PMS7003;62869;52.632;29.748;2022-12-01T12:19:20;15.8;13.2;7.6
74438;PMS7003;62869;52.632;29.748;2022-12-01T12:24:27;19;13.4;7.4
74438;PMS7003;62869;52.632;29.748;2022-12-01T12:29:31;15.4;14;8.2
74438;PMS7003;62869;52.632;29.748;2022-12-01T12:34:24;17.8;16;8.2
74438;PMS7003;62869;52.632;29.748;2022-12-01T12:39:19;18.6;15;8.6
74438;PMS7003;62869;52.632;29.748;2022-12-01T12:44:25;19;14.8;7.8
74438;PMS7003;62869;52.632;29.748;2022-12-01T12:49:26;13;13;10
74438;PMS7003;62869;52.632;29.748;2022-12-01T12:54:27;16.8;13.8;8.5
74438;PMS7003;62869;52.632;29.748;2022-12-01T12:59:14;18;15;8.7
74438;PMS7003;62869;52.632;29.748;2022-12-01T13:04:15;17;12;8
74438;PMS7003;62869;52.632;29.748;2022-12-01T13:09:14;19;16;10
74438;PMS7003;62869;52.632;29.748;2022-12-01T13:39:15;19;16;10
74438;PMS7003;62869;52.632;29.748;2022-12-01T13:44:20;32;23;11.5
74438;PMS7003;62869;52.632;29.748;2022-12-01T13:49:30;38.3;31;15.3
74438;PMS7003;62869;52.632;29.748;2022-12-01T13:54:29;40;32;15
74438;PMS7003;62869;52.632;29.748;2022-12-01T14:00:00;38.5;31.5;17.5
74438;PMS7003;62869;52.632;29.748;2022-12-01T14:04:32;47;38;19
74438;PMS7003;62869;52.632;29.748;2022-12-01T14:09:15;39.3;29.7;15.3
74438;PMS7003;62869;52.632;29.748;2022-12-01T14:14:16;37;31;17.7
74438;PMS7003;62869;52.632;29.748;2022-12-01T14:19:25;35;27.7;16.7
74438;PMS7003;62869;52.632;29.748;2022-12-01T14:24:19;29.3;26.3;15
74438;PMS7003;62869;52.632;29.748;2022-12-01T14:29:30;27.4;22.6;12.6
74438;PMS7003;62869;52.632;29.748;2022-12-01T14:34:22;25.3;21.7;12.7
74438;PMS7003;62869;52.632;29.748;2022-12-01T14:39:14;26;22.8;13.3
74438;PMS7003;62869;52.632;29.748;2022-12-01T14:44:26;37;29.6;16
74438;PMS7003;62869;52.632;29.748;2022-12-01T14:49:30;41.7;33.7;18
74438;PMS7003;62869;52.632;29.748;2022-12-01T14:54:16;33.6;29.4;18.6
74438;PMS7003;62869;52.632;29.748;2022-12-01T14:59:17;42;33.3;20.3
74438;PMS7003;62869;52.632;29.748;2022-12-01T15:04:34;35;30.3;19.3
74438;PMS7003;62869;52.632;29.748;2022-12-01T15:09:15;35.7;30.3;17.7
74438;PMS7003;62869;52.632;29.748;2022-12-01T15:24:34;37;32;18
74438;PMS7003;62869;52.632;29.748;2022-12-01T15:29:15;36;29;18
74438;PMS7003;62869;52.632;29.748;2022-12-01T15:34:14;36;29;18
